NKS2563 KFLL-KEWR
Flight info
| Callsign | NKS2563 |
|---|---|
| Flight time | 2h 17m |
| Altitude | 35000 |
| Route | FEALX2 ETECK GRUBR Y299 SEELO GARIC Q129 AARNN QUART PHLBO4 |
| Aircraft | A321/M-SDE3FGHIRWY/LB1 |
Departure
| Time | 2026-05-03 21:10 |
|---|---|
| Airport | Fort Lauderdale Hollywood International Airport (KFLL) |
Arrival
| Time | 2026-05-03 23:28 |
|---|---|
| Airport | Newark Liberty International Airport (KEWR) |
| Time | Latitude | Longitude | Altitude | Speed | Heading |
|---|---|---|---|---|---|
| 2026-05-03 20:15 | 26.06960 | -80.14140 | 16 ft | 0 kts | 280° |
| 2026-05-03 20:35 | 26.06960 | -80.14139 | 16 ft | 1 kts | 280° |
| 2026-05-03 20:35 | 26.06956 | -80.14113 | 16 ft | 4 kts | 294° |
| 2026-05-03 20:35 | 26.06945 | -80.14097 | 18 ft | 4 kts | 302° |
| 2026-05-03 20:36 | 26.06942 | -80.14085 | 19 ft | 4 kts | 200° |
| 2026-05-03 20:36 | 26.06964 | -80.14083 | 17 ft | 0 kts | 180° |
| 2026-05-03 20:40 | 26.06949 | -80.14083 | 16 ft | 4 kts | 180° |
| 2026-05-03 20:40 | 26.06906 | -80.14083 | 16 ft | 7 kts | 180° |
| 2026-05-03 20:40 | 26.06852 | -80.14086 | 16 ft | 8 kts | 193° |
| 2026-05-03 20:41 | 26.06827 | -80.14104 | 16 ft | 0 kts | 228° |
| 2026-05-03 20:42 | 26.06824 | -80.14109 | 16 ft | 3 kts | 235° |
| 2026-05-03 20:43 | 26.06812 | -80.14165 | 16 ft | 10 kts | 260° |
| 2026-05-03 20:43 | 26.06787 | -80.14240 | 15 ft | 11 kts | 235° |
| 2026-05-03 20:43 | 26.06770 | -80.14330 | 15 ft | 16 kts | 271° |
| 2026-05-03 20:43 | 26.06772 | -80.14461 | 17 ft | 17 kts | 270° |
| 2026-05-03 20:44 | 26.06766 | -80.14568 | 15 ft | 3 kts | 269° |
| 2026-05-03 20:44 | 26.06766 | -80.14574 | 15 ft | 0 kts | 270° |
| 2026-05-03 20:45 | 26.06766 | -80.14608 | 15 ft | 8 kts | 272° |
| 2026-05-03 20:45 | 26.06798 | -80.14673 | 15 ft | 11 kts | 314° |
| 2026-05-03 20:45 | 26.06860 | -80.14741 | 16 ft | 14 kts | 315° |
| 2026-05-03 20:46 | 26.06912 | -80.14834 | 16 ft | 15 kts | 278° |
| 2026-05-03 20:46 | 26.06911 | -80.14949 | 16 ft | 15 kts | 270° |
| 2026-05-03 20:46 | 26.06912 | -80.15056 | 16 ft | 11 kts | 270° |
| 2026-05-03 20:46 | 26.06880 | -80.15126 | 16 ft | 11 kts | 204° |
| 2026-05-03 20:47 | 26.06802 | -80.15131 | 16 ft | 12 kts | 180° |
| 2026-05-03 20:47 | 26.06726 | -80.15135 | 19 ft | 9 kts | 194° |
| 2026-05-03 20:47 | 26.06697 | -80.15182 | 21 ft | 8 kts | 261° |
| 2026-05-03 20:47 | 26.06696 | -80.15260 | 18 ft | 14 kts | 270° |
| 2026-05-03 20:48 | 26.06697 | -80.15378 | 16 ft | 16 kts | 270° |
| 2026-05-03 20:48 | 26.06697 | -80.15488 | 16 ft | 14 kts | 270° |
| 2026-05-03 20:48 | 26.06698 | -80.15577 | 16 ft | 8 kts | 271° |
| 2026-05-03 20:48 | 26.06698 | -80.15586 | 16 ft | 0 kts | 270° |
| 2026-05-03 20:49 | 26.06698 | -80.15610 | 16 ft | 6 kts | 270° |
| 2026-05-03 20:49 | 26.06698 | -80.15622 | 16 ft | 0 kts | 270° |
| 2026-05-03 20:50 | 26.06698 | -80.15634 | 16 ft | 0 kts | 270° |
| 2026-05-03 20:52 | 26.06698 | -80.15638 | 16 ft | 1 kts | 270° |
| 2026-05-03 20:52 | 26.06698 | -80.15659 | 16 ft | 4 kts | 270° |
| 2026-05-03 20:53 | 26.06698 | -80.15680 | 16 ft | 0 kts | 270° |
| 2026-05-03 20:56 | 26.06698 | -80.15713 | 16 ft | 6 kts | 270° |
| 2026-05-03 20:56 | 26.06699 | -80.15722 | 16 ft | 0 kts | 270° |
| 2026-05-03 21:01 | 26.06699 | -80.15725 | 16 ft | 1 kts | 270° |
| 2026-05-03 21:02 | 26.06699 | -80.15732 | 16 ft | 1 kts | 270° |
| 2026-05-03 21:02 | 26.06699 | -80.15749 | 16 ft | 3 kts | 270° |
| 2026-05-03 21:02 | 26.06699 | -80.15774 | 16 ft | 0 kts | 269° |
| 2026-05-03 21:05 | 26.06699 | -80.15779 | 16 ft | 2 kts | 270° |
| 2026-05-03 21:05 | 26.06696 | -80.15800 | 16 ft | 3 kts | 251° |
| 2026-05-03 21:06 | 26.06685 | -80.15811 | 16 ft | 0 kts | 211° |
| 2026-05-03 21:07 | 26.06681 | -80.15813 | 16 ft | 3 kts | 209° |
| 2026-05-03 21:08 | 26.06635 | -80.15822 | 17 ft | 8 kts | 180° |
| 2026-05-03 21:08 | 26.06593 | -80.15804 | 18 ft | 5 kts | 121° |
| 2026-05-03 21:08 | 26.06591 | -80.15774 | 19 ft | 0 kts | 92° |
| 2026-05-03 21:10 | 26.06587 | -80.15522 | 23 ft | 70 kts | 90° |
| 2026-05-03 21:10 | 26.06583 | -80.14732 | 28 ft | 133 kts | 90° |
| 2026-05-03 21:10 | 26.06568 | -80.13566 | 438 ft | 147 kts | 89° |
| 2026-05-03 21:10 | 26.06564 | -80.12461 | 1135 ft | 147 kts | 86° |
| 2026-05-03 21:11 | 26.06586 | -80.11301 | 1530 ft | 157 kts | 87° |
| 2026-05-03 21:11 | 26.06612 | -80.10010 | 1756 ft | 178 kts | 87° |
| 2026-05-03 21:11 | 26.06639 | -80.08550 | 1938 ft | 200 kts | 88° |
| 2026-05-03 21:11 | 26.06664 | -80.06918 | 2105 ft | 222 kts | 89° |
| 2026-05-03 21:12 | 26.06686 | -80.05112 | 2240 ft | 245 kts | 89° |
| 2026-05-03 21:12 | 26.06707 | -80.03135 | 2515 ft | 265 kts | 89° |
| 2026-05-03 21:12 | 26.06911 | -80.01078 | 3073 ft | 272 kts | 70° |
| 2026-05-03 21:12 | 26.07855 | -79.99260 | 3702 ft | 275 kts | 49° |
| 2026-05-03 21:13 | 26.09080 | -79.97599 | 3937 ft | 279 kts | 49° |
| 2026-05-03 21:13 | 26.10318 | -79.95936 | 4000 ft | 279 kts | 49° |
| 2026-05-03 21:13 | 26.11555 | -79.94277 | 4004 ft | 279 kts | 49° |
| 2026-05-03 21:13 | 26.12793 | -79.92609 | 4006 ft | 279 kts | 49° |
| 2026-05-03 21:14 | 26.14030 | -79.90942 | 4007 ft | 280 kts | 49° |
| 2026-05-03 21:14 | 26.15265 | -79.89272 | 4011 ft | 280 kts | 49° |
| 2026-05-03 21:14 | 26.16485 | -79.87577 | 4012 ft | 280 kts | 51° |
| 2026-05-03 21:14 | 26.17659 | -79.85819 | 4521 ft | 284 kts | 52° |
| 2026-05-03 21:15 | 26.18821 | -79.84027 | 5216 ft | 288 kts | 53° |
| 2026-05-03 21:15 | 26.19993 | -79.82204 | 5853 ft | 292 kts | 53° |
| 2026-05-03 21:15 | 26.21184 | -79.80350 | 6548 ft | 295 kts | 52° |
| 2026-05-03 21:15 | 26.22384 | -79.78488 | 7194 ft | 298 kts | 52° |
| 2026-05-03 21:16 | 26.23609 | -79.76596 | 7776 ft | 303 kts | 52° |
| 2026-05-03 21:16 | 26.24852 | -79.74682 | 8385 ft | 308 kts | 52° |
| 2026-05-03 21:16 | 26.26114 | -79.72738 | 9003 ft | 312 kts | 52° |
| 2026-05-03 21:16 | 26.27395 | -79.70769 | 9622 ft | 315 kts | 52° |
| 2026-05-03 21:17 | 26.28692 | -79.68775 | 10171 ft | 322 kts | 52° |
| 2026-05-03 21:17 | 26.29632 | -79.67462 | 10272 ft | 334 kts | 45° |
| 2026-05-03 21:17 | 26.31880 | -79.64869 | 10441 ft | 361 kts | 43° |
| 2026-05-03 21:17 | 26.33655 | -79.62845 | 10656 ft | 376 kts | 43° |
| 2026-05-03 21:18 | 26.35517 | -79.60711 | 11151 ft | 382 kts | 44° |
| 2026-05-03 21:18 | 26.37351 | -79.58601 | 11685 ft | 386 kts | 44° |
| 2026-05-03 21:18 | 26.39251 | -79.56411 | 12230 ft | 389 kts | 44° |
| 2026-05-03 21:18 | 26.41118 | -79.54257 | 12766 ft | 393 kts | 44° |
| 2026-05-03 21:19 | 26.43025 | -79.52062 | 13311 ft | 396 kts | 44° |
| 2026-05-03 21:19 | 26.44954 | -79.49842 | 13848 ft | 400 kts | 44° |
| 2026-05-03 21:19 | 26.46898 | -79.47599 | 14322 ft | 404 kts | 44° |
| 2026-05-03 21:19 | 26.48858 | -79.45336 | 14809 ft | 407 kts | 44° |
| 2026-05-03 21:20 | 26.50835 | -79.43057 | 15267 ft | 411 kts | 43° |
| 2026-05-03 21:20 | 26.52832 | -79.40750 | 15716 ft | 415 kts | 44° |
| 2026-05-03 21:20 | 26.54894 | -79.38480 | 16186 ft | 417 kts | 37° |
| 2026-05-03 21:20 | 26.57234 | -79.36585 | 16649 ft | 416 kts | 27° |
| 2026-05-03 21:21 | 26.59724 | -79.34903 | 17121 ft | 420 kts | 27° |
| 2026-05-03 21:21 | 26.62232 | -79.33204 | 17594 ft | 423 kts | 27° |
| 2026-05-03 21:21 | 26.64755 | -79.31494 | 18063 ft | 426 kts | 27° |
| 2026-05-03 21:21 | 26.67303 | -79.29764 | 18489 ft | 430 kts | 27° |
| 2026-05-03 21:22 | 26.69871 | -79.28019 | 18883 ft | 433 kts | 27° |
| 2026-05-03 21:22 | 26.72456 | -79.26256 | 19278 ft | 437 kts | 27° |
| 2026-05-03 21:22 | 26.75055 | -79.24482 | 19670 ft | 440 kts | 27° |
| 2026-05-03 21:22 | 26.77680 | -79.22689 | 20077 ft | 444 kts | 27° |
| 2026-05-03 21:23 | 26.80327 | -79.20880 | 20467 ft | 447 kts | 27° |
| 2026-05-03 21:23 | 26.82995 | -79.19058 | 20852 ft | 451 kts | 27° |
| 2026-05-03 21:23 | 26.85676 | -79.17227 | 21229 ft | 454 kts | 27° |
| 2026-05-03 21:23 | 26.88383 | -79.15379 | 21595 ft | 457 kts | 27° |
| 2026-05-03 21:24 | 26.91108 | -79.13517 | 21953 ft | 460 kts | 27° |
| 2026-05-03 21:24 | 26.93850 | -79.11641 | 22302 ft | 463 kts | 27° |
| 2026-05-03 21:24 | 26.96568 | -79.09781 | 22635 ft | 466 kts | 27° |
| 2026-05-03 21:24 | 26.99346 | -79.07880 | 22977 ft | 469 kts | 27° |
| 2026-05-03 21:25 | 27.02141 | -79.05967 | 23311 ft | 472 kts | 27° |
| 2026-05-03 21:25 | 27.04948 | -79.04047 | 23666 ft | 475 kts | 27° |
| 2026-05-03 21:25 | 27.07780 | -79.02106 | 23907 ft | 479 kts | 27° |
| 2026-05-03 21:25 | 27.10631 | -79.00146 | 24172 ft | 482 kts | 27° |
| 2026-05-03 21:26 | 27.13498 | -78.98172 | 24459 ft | 484 kts | 27° |
| 2026-05-03 21:26 | 27.16372 | -78.96192 | 24741 ft | 487 kts | 27° |
| 2026-05-03 21:26 | 27.19266 | -78.94196 | 25027 ft | 489 kts | 27° |
| 2026-05-03 21:26 | 27.22174 | -78.92191 | 25311 ft | 491 kts | 27° |
| 2026-05-03 21:27 | 27.25090 | -78.90183 | 25587 ft | 494 kts | 27° |
| 2026-05-03 21:27 | 27.28026 | -78.88160 | 25869 ft | 496 kts | 27° |
| 2026-05-03 21:27 | 27.30976 | -78.86128 | 26154 ft | 498 kts | 27° |
| 2026-05-03 21:27 | 27.33938 | -78.84086 | 26430 ft | 500 kts | 27° |
| 2026-05-03 21:28 | 27.36919 | -78.82063 | 26691 ft | 501 kts | 23° |
| 2026-05-03 21:28 | 27.40066 | -78.80430 | 26958 ft | 496 kts | 14° |
| 2026-05-03 21:28 | 27.43357 | -78.79346 | 27218 ft | 490 kts | 5° |
| 2026-05-03 21:28 | 27.46710 | -78.78773 | 27474 ft | 487 kts | 360° |
| 2026-05-03 21:29 | 27.50072 | -78.78300 | 27735 ft | 489 kts | 360° |
| 2026-05-03 21:29 | 27.53456 | -78.77815 | 27991 ft | 491 kts | 0° |
| 2026-05-03 21:29 | 27.56853 | -78.77320 | 28244 ft | 493 kts | 0° |
| 2026-05-03 21:29 | 27.60256 | -78.76820 | 28503 ft | 495 kts | 0° |
| 2026-05-03 21:30 | 27.63636 | -78.76319 | 28739 ft | 498 kts | 360° |
| 2026-05-03 21:30 | 27.67084 | -78.75808 | 28958 ft | 501 kts | 360° |
| 2026-05-03 21:30 | 27.70550 | -78.75295 | 29194 ft | 503 kts | 360° |
| 2026-05-03 21:30 | 27.74024 | -78.74784 | 29445 ft | 505 kts | 360° |
| 2026-05-03 21:31 | 27.77520 | -78.74272 | 29693 ft | 507 kts | 360° |
| 2026-05-03 21:31 | 27.81027 | -78.73761 | 29997 ft | 508 kts | 360° |
| 2026-05-03 21:31 | 27.84523 | -78.73249 | 30315 ft | 507 kts | 359° |
| 2026-05-03 21:31 | 27.88024 | -78.72732 | 30609 ft | 507 kts | 359° |
| 2026-05-03 21:32 | 27.91523 | -78.72213 | 30921 ft | 507 kts | 359° |
| 2026-05-03 21:32 | 27.95025 | -78.71694 | 31159 ft | 508 kts | 359° |
| 2026-05-03 21:32 | 27.98526 | -78.71176 | 31419 ft | 508 kts | 359° |
| 2026-05-03 21:32 | 28.02035 | -78.70656 | 31709 ft | 508 kts | 359° |
| 2026-05-03 21:33 | 28.05541 | -78.70138 | 31993 ft | 507 kts | 359° |
| 2026-05-03 21:33 | 28.09042 | -78.69620 | 32293 ft | 507 kts | 358° |
| 2026-05-03 21:33 | 28.12531 | -78.69104 | 32581 ft | 506 kts | 358° |
| 2026-05-03 21:33 | 28.16023 | -78.68587 | 32868 ft | 506 kts | 358° |
| 2026-05-03 21:34 | 28.19512 | -78.68070 | 33195 ft | 505 kts | 358° |
| 2026-05-03 21:34 | 28.22990 | -78.67553 | 33461 ft | 505 kts | 358° |
| 2026-05-03 21:34 | 28.26473 | -78.67039 | 33732 ft | 504 kts | 358° |
| 2026-05-03 21:34 | 28.29953 | -78.66530 | 34004 ft | 504 kts | 357° |
| 2026-05-03 21:35 | 28.33430 | -78.66017 | 34249 ft | 503 kts | 357° |
| 2026-05-03 21:35 | 28.36895 | -78.65504 | 34476 ft | 503 kts | 357° |
| 2026-05-03 21:35 | 28.40366 | -78.64988 | 34699 ft | 503 kts | 357° |
| 2026-05-03 21:35 | 28.43835 | -78.64468 | 34912 ft | 503 kts | 357° |
| 2026-05-03 21:36 | 28.47308 | -78.63948 | 35038 ft | 503 kts | 357° |
| 2026-05-03 21:36 | 28.50768 | -78.63428 | 35073 ft | 502 kts | 356° |
| 2026-05-03 21:36 | 28.57682 | -78.62395 | 35073 ft | 500 kts | 356° |
| 2026-05-03 21:37 | 28.64579 | -78.61372 | 35073 ft | 500 kts | 356° |
| 2026-05-03 21:37 | 28.71484 | -78.60345 | 35075 ft | 500 kts | 356° |
| 2026-05-03 21:38 | 28.78383 | -78.59308 | 35115 ft | 500 kts | 356° |
| 2026-05-03 21:38 | 28.85287 | -78.58272 | 35106 ft | 501 kts | 356° |
| 2026-05-03 21:39 | 28.92153 | -78.57239 | 35103 ft | 500 kts | 356° |
| 2026-05-03 21:39 | 28.99056 | -78.56207 | 35102 ft | 501 kts | 356° |
| 2026-05-03 21:40 | 29.05967 | -78.55169 | 35147 ft | 501 kts | 356° |
| 2026-05-03 21:40 | 29.12847 | -78.54132 | 35087 ft | 498 kts | 356° |
| 2026-05-03 21:41 | 29.19723 | -78.53094 | 35089 ft | 498 kts | 356° |
| 2026-05-03 21:41 | 29.26602 | -78.52056 | 35098 ft | 499 kts | 356° |
| 2026-05-03 21:42 | 29.33496 | -78.51016 | 35143 ft | 500 kts | 356° |
| 2026-05-03 21:42 | 29.40387 | -78.49969 | 35131 ft | 500 kts | 356° |
| 2026-05-03 21:43 | 29.47272 | -78.48956 | 35126 ft | 494 kts | 352° |
| 2026-05-03 21:43 | 29.50651 | -78.48939 | 35122 ft | 478 kts | 342° |
| 2026-05-03 21:43 | 29.53945 | -78.49295 | 35122 ft | 475 kts | 342° |
| 2026-05-03 21:44 | 29.60524 | -78.50028 | 35124 ft | 476 kts | 342° |
| 2026-05-03 21:44 | 29.67100 | -78.50728 | 35108 ft | 472 kts | 342° |
| 2026-05-03 21:45 | 29.73637 | -78.51417 | 35100 ft | 472 kts | 342° |
| 2026-05-03 21:45 | 29.80140 | -78.52125 | 35111 ft | 473 kts | 342° |
| 2026-05-03 21:46 | 29.86687 | -78.52838 | 35119 ft | 473 kts | 342° |
| 2026-05-03 21:46 | 29.93238 | -78.53554 | 35112 ft | 473 kts | 342° |
| 2026-05-03 21:47 | 29.99785 | -78.54266 | 35106 ft | 472 kts | 342° |
| 2026-05-03 21:47 | 30.06330 | -78.54987 | 35113 ft | 473 kts | 342° |
| 2026-05-03 21:48 | 30.12895 | -78.55694 | 35122 ft | 475 kts | 343° |
| 2026-05-03 21:48 | 30.16249 | -78.55717 | 35120 ft | 490 kts | 354° |
| 2026-05-03 21:48 | 30.19657 | -78.55251 | 35123 ft | 495 kts | 356° |
| 2026-05-03 21:49 | 30.26496 | -78.54251 | 35124 ft | 495 kts | 356° |
| 2026-05-03 21:49 | 30.33328 | -78.53276 | 35125 ft | 495 kts | 356° |
| 2026-05-03 21:50 | 30.40123 | -78.52315 | 35128 ft | 495 kts | 356° |
| 2026-05-03 21:50 | 30.46962 | -78.51289 | 35159 ft | 497 kts | 357° |
| 2026-05-03 21:51 | 30.53808 | -78.50158 | 35145 ft | 497 kts | 357° |
| 2026-05-03 21:51 | 30.60666 | -78.49014 | 35145 ft | 498 kts | 357° |
| 2026-05-03 21:52 | 30.67519 | -78.47893 | 35147 ft | 497 kts | 357° |
| 2026-05-03 21:52 | 30.74381 | -78.46794 | 35177 ft | 497 kts | 357° |
| 2026-05-03 21:53 | 30.81191 | -78.45689 | 35112 ft | 493 kts | 357° |
| 2026-05-03 21:53 | 30.87989 | -78.44576 | 35116 ft | 493 kts | 357° |
| 2026-05-03 21:54 | 30.93641 | -78.43653 | 35128 ft | 494 kts | 357° |
| 2026-05-03 21:54 | 31.00443 | -78.42540 | 35173 ft | 494 kts | 357° |
| 2026-05-03 21:55 | 31.07264 | -78.41431 | 35149 ft | 495 kts | 357° |
| 2026-05-03 21:55 | 31.14093 | -78.40320 | 35143 ft | 496 kts | 358° |
| 2026-05-03 21:56 | 31.20938 | -78.39200 | 35142 ft | 497 kts | 358° |
| 2026-05-03 21:56 | 31.27783 | -78.38067 | 35182 ft | 497 kts | 358° |
| 2026-05-03 21:57 | 31.34649 | -78.36929 | 35148 ft | 499 kts | 358° |
| 2026-05-03 21:57 | 31.41478 | -78.35806 | 35138 ft | 500 kts | 357° |
| 2026-05-03 21:58 | 31.48369 | -78.34670 | 35142 ft | 501 kts | 358° |
| 2026-05-03 21:58 | 31.55276 | -78.33523 | 35186 ft | 501 kts | 357° |
| 2026-05-03 21:59 | 31.62173 | -78.32383 | 35146 ft | 500 kts | 357° |
| 2026-05-03 21:59 | 31.69076 | -78.31239 | 35148 ft | 501 kts | 357° |
| 2026-05-03 22:00 | 31.75979 | -78.30091 | 35157 ft | 501 kts | 357° |
| 2026-05-03 22:00 | 31.82898 | -78.28951 | 35184 ft | 502 kts | 357° |
| 2026-05-03 22:01 | 31.89820 | -78.27795 | 35174 ft | 503 kts | 357° |
| 2026-05-03 22:01 | 31.96754 | -78.26629 | 35169 ft | 503 kts | 357° |
| 2026-05-03 22:02 | 32.03679 | -78.25468 | 35167 ft | 503 kts | 357° |
| 2026-05-03 22:02 | 32.10600 | -78.24424 | 35152 ft | 501 kts | 355° |
| 2026-05-03 22:03 | 32.17462 | -78.23469 | 35138 ft | 499 kts | 355° |
| 2026-05-03 22:03 | 32.24368 | -78.22500 | 35146 ft | 501 kts | 356° |
| 2026-05-03 22:04 | 32.31294 | -78.21483 | 35146 ft | 502 kts | 356° |
| 2026-05-03 22:04 | 32.38221 | -78.20455 | 35184 ft | 502 kts | 355° |
| 2026-05-03 22:05 | 32.45156 | -78.19432 | 35181 ft | 502 kts | 355° |
| 2026-05-03 22:05 | 32.52079 | -78.18417 | 35174 ft | 501 kts | 355° |
| 2026-05-03 22:06 | 32.59005 | -78.17406 | 35170 ft | 501 kts | 355° |
| 2026-05-03 22:06 | 32.65902 | -78.16382 | 35155 ft | 498 kts | 355° |
| 2026-05-03 22:07 | 32.72765 | -78.15357 | 35156 ft | 497 kts | 355° |
| 2026-05-03 22:07 | 32.79638 | -78.14344 | 35160 ft | 498 kts | 355° |
| 2026-05-03 22:08 | 32.86510 | -78.13328 | 35163 ft | 498 kts | 355° |
| 2026-05-03 22:08 | 32.93394 | -78.12309 | 35169 ft | 498 kts | 355° |
| 2026-05-03 22:09 | 33.00271 | -78.11296 | 35170 ft | 498 kts | 355° |
| 2026-05-03 22:10 | 33.10594 | -78.09748 | 35174 ft | 498 kts | 355° |
| 2026-05-03 22:10 | 33.17398 | -78.08724 | 35145 ft | 492 kts | 355° |
| 2026-05-03 22:11 | 33.24177 | -78.07709 | 35144 ft | 491 kts | 355° |
| 2026-05-03 22:11 | 33.30967 | -78.06707 | 35149 ft | 492 kts | 355° |
| 2026-05-03 22:12 | 33.37760 | -78.05693 | 35188 ft | 492 kts | 355° |
| 2026-05-03 22:12 | 33.44563 | -78.04668 | 35180 ft | 492 kts | 355° |
| 2026-05-03 22:13 | 33.51353 | -78.03639 | 35174 ft | 492 kts | 355° |
| 2026-05-03 22:13 | 33.58140 | -78.02621 | 35165 ft | 492 kts | 355° |
| 2026-05-03 22:14 | 33.64932 | -78.01607 | 35189 ft | 491 kts | 354° |
| 2026-05-03 22:14 | 33.71651 | -78.00585 | 35129 ft | 485 kts | 354° |
| 2026-05-03 22:15 | 33.78303 | -77.99576 | 35105 ft | 485 kts | 354° |
| 2026-05-03 22:15 | 33.85002 | -77.98561 | 35105 ft | 486 kts | 354° |
| 2026-05-03 22:16 | 33.91655 | -77.98006 | 35147 ft | 475 kts | 348° |
| 2026-05-03 22:16 | 33.98248 | -77.97769 | 35138 ft | 474 kts | 348° |
| 2026-05-03 22:17 | 34.04828 | -77.97540 | 35141 ft | 473 kts | 348° |
| 2026-05-03 22:17 | 34.11408 | -77.97308 | 35138 ft | 473 kts | 348° |
| 2026-05-03 22:18 | 34.17973 | -77.97073 | 35105 ft | 470 kts | 349° |
| 2026-05-03 22:18 | 34.24505 | -77.96839 | 35102 ft | 469 kts | 349° |
| 2026-05-03 22:19 | 34.31033 | -77.96601 | 35111 ft | 470 kts | 349° |
| 2026-05-03 22:19 | 34.37531 | -77.96362 | 35117 ft | 470 kts | 349° |
| 2026-05-03 22:20 | 34.44063 | -77.96118 | 35139 ft | 469 kts | 350° |
| 2026-05-03 22:20 | 34.50582 | -77.95879 | 35128 ft | 468 kts | 349° |
| 2026-05-03 22:21 | 34.57085 | -77.95652 | 35113 ft | 468 kts | 349° |
| 2026-05-03 22:21 | 34.63592 | -77.95416 | 35112 ft | 468 kts | 349° |
| 2026-05-03 22:22 | 34.70093 | -77.95181 | 35105 ft | 465 kts | 349° |
| 2026-05-03 22:22 | 34.76552 | -77.94944 | 35106 ft | 465 kts | 349° |
| 2026-05-03 22:23 | 34.83021 | -77.94705 | 35110 ft | 465 kts | 349° |
| 2026-05-03 22:23 | 34.89485 | -77.94469 | 35113 ft | 465 kts | 349° |
| 2026-05-03 22:24 | 34.95899 | -77.94224 | 35107 ft | 462 kts | 350° |
| 2026-05-03 22:24 | 35.02321 | -77.93989 | 35110 ft | 462 kts | 349° |
| 2026-05-03 22:25 | 35.08745 | -77.93764 | 35112 ft | 462 kts | 350° |
| 2026-05-03 22:25 | 35.15181 | -77.93517 | 35156 ft | 463 kts | 350° |
| 2026-05-03 22:26 | 35.21610 | -77.93277 | 35151 ft | 462 kts | 350° |
| 2026-05-03 22:26 | 35.28040 | -77.93041 | 35144 ft | 462 kts | 350° |
| 2026-05-03 22:27 | 35.34400 | -77.93121 | 35136 ft | 452 kts | 344° |
| 2026-05-03 22:27 | 35.40676 | -77.93647 | 35120 ft | 452 kts | 344° |
| 2026-05-03 22:28 | 35.46909 | -77.94171 | 35118 ft | 452 kts | 344° |
| 2026-05-03 22:28 | 35.53189 | -77.94688 | 35117 ft | 452 kts | 344° |
| 2026-05-03 22:29 | 35.59460 | -77.95210 | 35117 ft | 452 kts | 344° |
| 2026-05-03 22:29 | 35.65728 | -77.95738 | 35147 ft | 452 kts | 345° |
| 2026-05-03 22:30 | 35.71985 | -77.96251 | 35122 ft | 450 kts | 346° |
| 2026-05-03 22:30 | 35.78227 | -77.96761 | 35108 ft | 450 kts | 345° |
| 2026-05-03 22:31 | 35.84475 | -77.97286 | 35110 ft | 450 kts | 345° |
| 2026-05-03 22:31 | 35.90716 | -77.97815 | 35145 ft | 450 kts | 345° |
| 2026-05-03 22:32 | 35.96964 | -77.98339 | 35135 ft | 449 kts | 345° |
| 2026-05-03 22:32 | 36.03198 | -77.98858 | 35130 ft | 449 kts | 345° |
| 2026-05-03 22:33 | 36.09435 | -77.99379 | 35129 ft | 449 kts | 345° |
| 2026-05-03 22:33 | 36.15660 | -77.99903 | 35155 ft | 448 kts | 345° |
| 2026-05-03 22:34 | 36.21831 | -78.00423 | 35099 ft | 443 kts | 345° |
| 2026-05-03 22:34 | 36.27982 | -78.00949 | 35098 ft | 443 kts | 345° |
| 2026-05-03 22:35 | 36.34133 | -78.01471 | 35103 ft | 444 kts | 345° |
| 2026-05-03 22:35 | 36.40365 | -78.01161 | 35134 ft | 466 kts | 1° |
| 2026-05-03 22:36 | 36.46716 | -77.99487 | 35120 ft | 467 kts | 1° |
| 2026-05-03 22:36 | 36.53075 | -77.97812 | 35117 ft | 467 kts | 1° |
| 2026-05-03 22:37 | 36.59427 | -77.96149 | 35154 ft | 467 kts | 1° |
| 2026-05-03 22:37 | 36.65782 | -77.94486 | 35140 ft | 465 kts | 1° |
| 2026-05-03 22:38 | 36.72090 | -77.92824 | 35129 ft | 463 kts | 1° |
| 2026-05-03 22:38 | 36.78399 | -77.91166 | 35122 ft | 464 kts | 1° |
| 2026-05-03 22:39 | 36.84721 | -77.89504 | 35115 ft | 464 kts | 1° |
| 2026-05-03 22:39 | 36.91037 | -77.87834 | 35108 ft | 464 kts | 1° |
| 2026-05-03 22:40 | 36.97347 | -77.86164 | 35099 ft | 463 kts | 1° |
| 2026-05-03 22:40 | 37.03644 | -77.84492 | 35093 ft | 463 kts | 1° |
| 2026-05-03 22:41 | 37.09902 | -77.82827 | 35131 ft | 462 kts | 1° |
| 2026-05-03 22:41 | 37.16160 | -77.81169 | 35081 ft | 458 kts | 1° |
| 2026-05-03 22:42 | 37.22404 | -77.79511 | 35085 ft | 459 kts | 1° |
| 2026-05-03 22:42 | 37.28646 | -77.77846 | 35086 ft | 459 kts | 1° |
| 2026-05-03 22:43 | 37.34895 | -77.76168 | 35119 ft | 460 kts | 1° |
| 2026-05-03 22:43 | 37.41153 | -77.74497 | 35113 ft | 459 kts | 1° |
| 2026-05-03 22:44 | 37.47402 | -77.72826 | 35106 ft | 459 kts | 1° |
| 2026-05-03 22:44 | 37.53585 | -77.70374 | 35101 ft | 481 kts | 17° |
| 2026-05-03 22:45 | 37.59348 | -77.65873 | 35090 ft | 488 kts | 23° |
| 2026-05-03 22:45 | 37.65059 | -77.61236 | 35081 ft | 488 kts | 22° |
| 2026-05-03 22:46 | 37.70777 | -77.56616 | 35089 ft | 489 kts | 22° |
| 2026-05-03 22:46 | 37.76511 | -77.51975 | 35090 ft | 490 kts | 23° |
| 2026-05-03 22:47 | 37.82237 | -77.47301 | 35092 ft | 491 kts | 23° |
| 2026-05-03 22:47 | 37.87970 | -77.42619 | 35096 ft | 491 kts | 22° |
| 2026-05-03 22:48 | 37.93678 | -77.37973 | 35095 ft | 491 kts | 22° |
| 2026-05-03 22:48 | 37.99418 | -77.33287 | 34797 ft | 492 kts | 24° |
| 2026-05-03 22:48 | 38.02297 | -77.30929 | 35008 ft | 492 kts | 24° |
| 2026-05-03 22:49 | 38.05188 | -77.28566 | 35065 ft | 497 kts | 24° |
| 2026-05-03 22:49 | 38.11073 | -77.23763 | 35061 ft | 510 kts | 24° |
| 2026-05-03 22:50 | 38.16118 | -77.19640 | 35056 ft | 520 kts | 25° |
| 2026-05-03 22:50 | 38.22234 | -77.14607 | 35046 ft | 532 kts | 25° |
| 2026-05-03 22:51 | 38.28466 | -77.09451 | 35049 ft | 536 kts | 25° |
| 2026-05-03 22:51 | 38.34613 | -77.03973 | 35062 ft | 542 kts | 30° |
| 2026-05-03 22:52 | 38.40576 | -76.98068 | 35090 ft | 544 kts | 31° |
| 2026-05-03 22:52 | 38.46531 | -76.92098 | 35045 ft | 544 kts | 31° |
| 2026-05-03 22:53 | 38.52546 | -76.86249 | 35015 ft | 544 kts | 30° |
| 2026-05-03 22:53 | 38.58602 | -76.80459 | 35039 ft | 544 kts | 30° |
| 2026-05-03 22:54 | 38.64655 | -76.74619 | 35066 ft | 545 kts | 30° |
| 2026-05-03 22:54 | 38.70693 | -76.68740 | 35045 ft | 546 kts | 30° |
| 2026-05-03 22:55 | 38.76701 | -76.62870 | 35034 ft | 547 kts | 30° |
| 2026-05-03 22:55 | 38.82750 | -76.56952 | 35073 ft | 548 kts | 30° |
| 2026-05-03 22:56 | 38.88821 | -76.51015 | 34947 ft | 550 kts | 30° |
| 2026-05-03 22:56 | 38.91855 | -76.48042 | 34672 ft | 550 kts | 30° |
| 2026-05-03 22:56 | 38.94896 | -76.45058 | 34164 ft | 552 kts | 30° |
| 2026-05-03 22:56 | 38.97989 | -76.42028 | 32952 ft | 564 kts | 31° |
| 2026-05-03 22:57 | 39.01104 | -76.38965 | 32475 ft | 561 kts | 31° |
| 2026-05-03 22:57 | 39.04171 | -76.35874 | 31803 ft | 563 kts | 33° |
| 2026-05-03 22:57 | 39.07163 | -76.32623 | 31240 ft | 563 kts | 36° |
| 2026-05-03 22:57 | 39.10071 | -76.29241 | 30628 ft | 563 kts | 38° |
| 2026-05-03 22:58 | 39.12920 | -76.25790 | 29978 ft | 563 kts | 39° |
| 2026-05-03 22:58 | 39.15752 | -76.22315 | 29358 ft | 560 kts | 39° |
| 2026-05-03 22:58 | 39.18573 | -76.18875 | 28757 ft | 556 kts | 39° |
| 2026-05-03 22:58 | 39.21347 | -76.15547 | 28308 ft | 549 kts | 38° |
| 2026-05-03 22:59 | 39.24155 | -76.12235 | 27693 ft | 544 kts | 38° |
| 2026-05-03 22:59 | 39.26946 | -76.08985 | 27223 ft | 538 kts | 37° |
| 2026-05-03 22:59 | 39.29718 | -76.05771 | 26697 ft | 533 kts | 37° |
| 2026-05-03 22:59 | 39.32461 | -76.02584 | 26211 ft | 527 kts | 37° |
| 2026-05-03 23:00 | 39.35166 | -75.99431 | 25737 ft | 522 kts | 38° |
| 2026-05-03 23:00 | 39.37842 | -75.96294 | 25253 ft | 517 kts | 38° |
| 2026-05-03 23:00 | 39.40483 | -75.93182 | 24871 ft | 511 kts | 38° |
| 2026-05-03 23:00 | 39.43088 | -75.90103 | 24406 ft | 505 kts | 39° |
| 2026-05-03 23:01 | 39.45668 | -75.87047 | 23960 ft | 500 kts | 39° |
| 2026-05-03 23:01 | 39.48215 | -75.84022 | 23542 ft | 494 kts | 39° |
| 2026-05-03 23:01 | 39.50725 | -75.81035 | 23047 ft | 488 kts | 39° |
| 2026-05-03 23:01 | 39.53211 | -75.78081 | 22568 ft | 482 kts | 38° |
| 2026-05-03 23:02 | 39.55677 | -75.75156 | 22046 ft | 479 kts | 38° |
| 2026-05-03 23:02 | 39.58117 | -75.72257 | 21643 ft | 473 kts | 38° |
| 2026-05-03 23:02 | 39.60529 | -75.69387 | 21242 ft | 468 kts | 39° |
| 2026-05-03 23:02 | 39.62914 | -75.66546 | 20832 ft | 464 kts | 39° |
| 2026-05-03 23:03 | 39.65247 | -75.63764 | 20427 ft | 459 kts | 39° |
| 2026-05-03 23:03 | 39.67589 | -75.60973 | 20043 ft | 454 kts | 39° |
| 2026-05-03 23:03 | 39.69898 | -75.58216 | 19655 ft | 449 kts | 39° |
| 2026-05-03 23:03 | 39.72182 | -75.55476 | 19273 ft | 444 kts | 39° |
| 2026-05-03 23:04 | 39.74435 | -75.52762 | 18894 ft | 439 kts | 39° |
| 2026-05-03 23:04 | 39.76654 | -75.50080 | 18521 ft | 434 kts | 39° |
| 2026-05-03 23:04 | 39.78845 | -75.47429 | 18126 ft | 428 kts | 39° |
| 2026-05-03 23:04 | 39.81019 | -75.44801 | 17686 ft | 423 kts | 39° |
| 2026-05-03 23:05 | 39.83164 | -75.42210 | 17248 ft | 418 kts | 39° |
| 2026-05-03 23:05 | 39.85279 | -75.39656 | 16829 ft | 413 kts | 39° |
| 2026-05-03 23:05 | 39.87377 | -75.37121 | 16418 ft | 408 kts | 39° |
| 2026-05-03 23:05 | 39.89445 | -75.34621 | 16008 ft | 403 kts | 39° |
| 2026-05-03 23:06 | 39.91505 | -75.32124 | 15265 ft | 408 kts | 40° |
| 2026-05-03 23:06 | 39.93574 | -75.29609 | 14835 ft | 404 kts | 40° |
| 2026-05-03 23:06 | 39.95588 | -75.27157 | 14434 ft | 399 kts | 40° |
| 2026-05-03 23:06 | 39.97632 | -75.24669 | 14037 ft | 394 kts | 40° |
| 2026-05-03 23:07 | 39.99597 | -75.22280 | 13615 ft | 390 kts | 40° |
| 2026-05-03 23:07 | 40.01565 | -75.19884 | 13207 ft | 384 kts | 40° |
| 2026-05-03 23:07 | 40.03502 | -75.17522 | 12821 ft | 378 kts | 40° |
| 2026-05-03 23:07 | 40.05406 | -75.15199 | 12441 ft | 373 kts | 40° |
| 2026-05-03 23:08 | 40.07286 | -75.12902 | 12062 ft | 367 kts | 40° |
| 2026-05-03 23:08 | 40.09137 | -75.10632 | 11692 ft | 363 kts | 40° |
| 2026-05-03 23:08 | 40.10968 | -75.08387 | 11327 ft | 359 kts | 40° |
| 2026-05-03 23:08 | 40.12774 | -75.06176 | 10959 ft | 351 kts | 40° |
| 2026-05-03 23:09 | 40.14520 | -75.04033 | 10445 ft | 335 kts | 40° |
| 2026-05-03 23:09 | 40.16182 | -75.01992 | 10232 ft | 324 kts | 40° |
| 2026-05-03 23:09 | 40.17828 | -74.99979 | 10028 ft | 325 kts | 40° |
| 2026-05-03 23:09 | 40.19476 | -74.97962 | 9700 ft | 323 kts | 40° |
| 2026-05-03 23:10 | 40.21105 | -74.95962 | 9384 ft | 320 kts | 40° |
| 2026-05-03 23:10 | 40.22722 | -74.93976 | 9098 ft | 316 kts | 40° |
| 2026-05-03 23:10 | 40.24316 | -74.92021 | 8809 ft | 313 kts | 40° |
| 2026-05-03 23:10 | 40.25888 | -74.90064 | 8527 ft | 310 kts | 42° |
| 2026-05-03 23:11 | 40.27389 | -74.88044 | 8224 ft | 308 kts | 44° |
| 2026-05-03 23:11 | 40.28837 | -74.86002 | 8001 ft | 304 kts | 45° |
| 2026-05-03 23:11 | 40.30262 | -74.83958 | 7963 ft | 304 kts | 45° |
| 2026-05-03 23:11 | 40.31688 | -74.81916 | 7973 ft | 304 kts | 45° |
| 2026-05-03 23:12 | 40.33107 | -74.79895 | 7972 ft | 304 kts | 45° |
| 2026-05-03 23:12 | 40.34541 | -74.77863 | 7982 ft | 303 kts | 45° |
| 2026-05-03 23:12 | 40.35970 | -74.75843 | 7972 ft | 301 kts | 44° |
| 2026-05-03 23:12 | 40.37396 | -74.73832 | 7970 ft | 301 kts | 44° |
| 2026-05-03 23:13 | 40.38822 | -74.71827 | 7970 ft | 301 kts | 44° |
| 2026-05-03 23:13 | 40.40245 | -74.69826 | 7970 ft | 300 kts | 44° |
| 2026-05-03 23:13 | 40.41786 | -74.68004 | 7966 ft | 297 kts | 31° |
| 2026-05-03 23:13 | 40.43589 | -74.66741 | 7951 ft | 292 kts | 16° |
| 2026-05-03 23:14 | 40.45529 | -74.66069 | 7947 ft | 288 kts | 7° |
| 2026-05-03 23:14 | 40.47494 | -74.65547 | 7950 ft | 288 kts | 7° |
| 2026-05-03 23:14 | 40.49456 | -74.65021 | 7945 ft | 288 kts | 7° |
| 2026-05-03 23:14 | 40.51418 | -74.64497 | 7937 ft | 288 kts | 7° |
| 2026-05-03 23:15 | 40.53377 | -74.63980 | 7953 ft | 287 kts | 7° |
| 2026-05-03 23:15 | 40.55331 | -74.63463 | 7940 ft | 285 kts | 7° |
| 2026-05-03 23:15 | 40.57263 | -74.62947 | 7945 ft | 285 kts | 7° |
| 2026-05-03 23:15 | 40.59211 | -74.62424 | 7945 ft | 285 kts | 7° |
| 2026-05-03 23:16 | 40.61152 | -74.61906 | 7945 ft | 284 kts | 7° |
| 2026-05-03 23:16 | 40.63091 | -74.61388 | 7938 ft | 284 kts | 7° |
| 2026-05-03 23:16 | 40.65029 | -74.60868 | 7943 ft | 284 kts | 7° |
| 2026-05-03 23:16 | 40.66943 | -74.60355 | 7939 ft | 285 kts | 7° |
| 2026-05-03 23:17 | 40.68901 | -74.59830 | 7942 ft | 284 kts | 7° |
| 2026-05-03 23:17 | 40.70811 | -74.59315 | 7945 ft | 284 kts | 7° |
| 2026-05-03 23:17 | 40.72745 | -74.58794 | 7944 ft | 284 kts | 7° |
| 2026-05-03 23:17 | 40.74681 | -74.58274 | 7954 ft | 283 kts | 7° |
| 2026-05-03 23:18 | 40.76585 | -74.57674 | 7677 ft | 281 kts | 12° |
| 2026-05-03 23:18 | 40.78449 | -74.56946 | 7366 ft | 279 kts | 13° |
| 2026-05-03 23:18 | 40.80301 | -74.56215 | 7065 ft | 275 kts | 13° |
| 2026-05-03 23:18 | 40.82125 | -74.55507 | 6762 ft | 272 kts | 13° |
| 2026-05-03 23:19 | 40.83933 | -74.54812 | 6472 ft | 269 kts | 14° |
| 2026-05-03 23:19 | 40.85613 | -74.53729 | 6135 ft | 271 kts | 30° |
| 2026-05-03 23:19 | 40.87144 | -74.52310 | 6000 ft | 269 kts | 32° |
| 2026-05-03 23:19 | 40.88661 | -74.50854 | 6021 ft | 271 kts | 32° |
| 2026-05-03 23:20 | 40.90124 | -74.49277 | 6009 ft | 274 kts | 45° |
| 2026-05-03 23:20 | 40.91320 | -74.47301 | 6010 ft | 276 kts | 51° |
| 2026-05-03 23:20 | 40.92189 | -74.45032 | 6021 ft | 281 kts | 75° |
| 2026-05-03 23:20 | 40.92393 | -74.42462 | 6010 ft | 283 kts | 86° |
| 2026-05-03 23:21 | 40.92439 | -74.39853 | 6015 ft | 285 kts | 87° |
| 2026-05-03 23:21 | 40.92465 | -74.37232 | 6013 ft | 285 kts | 88° |
| 2026-05-03 23:21 | 40.92431 | -74.34616 | 6005 ft | 285 kts | 97° |
| 2026-05-03 23:21 | 40.92065 | -74.32039 | 6006 ft | 285 kts | 102° |
| 2026-05-03 23:22 | 40.91188 | -74.26953 | 5485 ft | 283 kts | 102° |
| 2026-05-03 23:22 | 40.90741 | -74.24430 | 5142 ft | 281 kts | 102° |
| 2026-05-03 23:22 | 40.90287 | -74.21935 | 4845 ft | 279 kts | 107° |
| 2026-05-03 23:23 | 40.89517 | -74.19590 | 4459 ft | 278 kts | 118° |
| 2026-05-03 23:23 | 40.88604 | -74.17389 | 4132 ft | 275 kts | 119° |
| 2026-05-03 23:23 | 40.87683 | -74.15227 | 4000 ft | 265 kts | 120° |
| 2026-05-03 23:23 | 40.86799 | -74.13154 | 3870 ft | 254 kts | 120° |
| 2026-05-03 23:24 | 40.85790 | -74.11327 | 3768 ft | 239 kts | 136° |
| 2026-05-03 23:24 | 40.84502 | -74.10052 | 3576 ft | 226 kts | 154° |
| 2026-05-03 23:24 | 40.83075 | -74.09352 | 3379 ft | 209 kts | 171° |
| 2026-05-03 23:24 | 40.81730 | -74.09187 | 3231 ft | 180 kts | 185° |
| 2026-05-03 23:25 | 40.80537 | -74.09409 | 2858 ft | 168 kts | 199° |
| 2026-05-03 23:25 | 40.79486 | -74.09952 | 2477 ft | 158 kts | 211° |
| 2026-05-03 23:25 | 40.78504 | -74.10577 | 2060 ft | 155 kts | 210° |
| 2026-05-03 23:25 | 40.77540 | -74.11192 | 1747 ft | 153 kts | 211° |
| 2026-05-03 23:26 | 40.76586 | -74.11800 | 1513 ft | 152 kts | 211° |
| 2026-05-03 23:26 | 40.75631 | -74.12408 | 1292 ft | 152 kts | 210° |
| 2026-05-03 23:26 | 40.74685 | -74.13008 | 1078 ft | 151 kts | 210° |
| 2026-05-03 23:26 | 40.73740 | -74.13601 | 875 ft | 151 kts | 210° |
| 2026-05-03 23:27 | 40.72800 | -74.14190 | 688 ft | 152 kts | 210° |
| 2026-05-03 23:27 | 40.71844 | -74.14772 | 482 ft | 150 kts | 210° |
| 2026-05-03 23:27 | 40.70913 | -74.15378 | 307 ft | 150 kts | 212° |
| 2026-05-03 23:27 | 40.69984 | -74.16000 | 104 ft | 149 kts | 210° |
| 2026-05-03 23:28 | 40.69069 | -74.16588 | 28 ft | 136 kts | 211° |
| 2026-05-03 23:28 | 40.68516 | -74.16964 | 22 ft | 50 kts | 204° |
| 2026-05-03 23:28 | 40.68301 | -74.17122 | 22 ft | 30 kts | 223° |
| 2026-05-03 23:28 | 40.68209 | -74.17287 | 22 ft | 12 kts | 236° |
| 2026-05-03 23:29 | 40.68169 | -74.17363 | 24 ft | 5 kts | 234° |
| 2026-05-03 23:29 | 40.68147 | -74.17405 | 21 ft | 7 kts | 244° |
| 2026-05-03 23:29 | 40.68154 | -74.17472 | 21 ft | 11 kts | 296° |
| 2026-05-03 23:29 | 40.68188 | -74.17565 | 23 ft | 12 kts | 296° |
| 2026-05-03 23:30 | 40.68239 | -74.17644 | 22 ft | 12 kts | 346° |
| 2026-05-03 23:30 | 40.68318 | -74.17609 | 22 ft | 13 kts | 25° |
| 2026-05-03 23:30 | 40.68401 | -74.17557 | 24 ft | 14 kts | 26° |
| 2026-05-03 23:30 | 40.68491 | -74.17501 | 23 ft | 15 kts | 26° |
| 2026-05-03 23:31 | 40.68573 | -74.17494 | 23 ft | 12 kts | 312° |
| 2026-05-03 23:31 | 40.68607 | -74.17585 | 22 ft | 10 kts | 296° |
| 2026-05-03 23:31 | 40.68652 | -74.17613 | 23 ft | 7 kts | 16° |
| 2026-05-03 23:31 | 40.68687 | -74.17593 | 24 ft | 4 kts | 32° |
| 2026-05-03 23:32 | 40.68705 | -74.17571 | 22 ft | 3 kts | 44° |
| 2026-05-03 23:32 | 40.68715 | -74.17559 | 22 ft | 1 kts | 44° |
| 2026-05-03 23:32 | 40.68738 | -74.17543 | 22 ft | 6 kts | 3° |
| 2026-05-03 23:32 | 40.68761 | -74.17578 | 22 ft | 5 kts | 295° |
| 2026-05-03 23:33 | 40.68772 | -74.17607 | 22 ft | 0 kts | 296° |